Morning Lady — 3FKC3 — position and weather

sailwx.info

Track history (hours):
 
Tides and Currents Weather Stations Pressure Air Temp Water Temp Dewpoint Dewpoint Depression Visibility Wind Speed Wind Dir Waves Ship Positions

Morning Lady

Last reported at 2016-Apr-27 07:33 UTC. Time now 2016-Apr-30 11:16 UTC.
Position N 31°19' E 121°45'.

Length 234 m; draft 9.5 m.

Type: Ship. MMSI: 356473000.

Date/timePositionNaut miles runAvg speedWind from/ knotsBaromVisibWave heightAir tempDewpointWater temp
2016-Apr-27 07:33N 31°19' E 121°45'3 0.1
2016-Apr-26 06:25N 31°19' E 121°41'4 4.2
2016-Apr-26 05:32N 31°19' E 121°45'5610.5
2016-Apr-26 00:11N 31°07' E 122°49'4215.2
2016-Apr-25 21:24N 30°35' E 123°22'70613.8
2016-Apr-23 18:20N 22°07' E 114°15'1310.1
2016-Apr-23 17:05N 22°16' E 114°06'4 7.8
2016-Apr-23 16:33N 22°20' E 114°07'0 0.0
2016-Apr-23 08:33N 22°20' E 114°07'17 8.6
2016-Apr-23 06:31N 22°07' E 114°20'  
2016-Apr-19 22:21N 01°15' E 104°00'6 5.8
2016-Apr-19 21:21N 01°16' E 103°55'0 0.0
2016-Apr-19 19:24N 01°16' E 103°55'0 0.1
2016-Apr-19 18:30N 01°16' E 103°55'0 0.1
2016-Apr-19 17:33N 01°16' E 103°55'0 0.1
2016-Apr-19 16:33N 01°16' E 103°55'0 0.0
2016-Apr-19 15:30N 01°16' E 103°55'0 0.0
2016-Apr-19 13:33N 01°16' E 103°55'0 0.0
2016-Apr-19 11:33N 01°16' E 103°55'2 2.1
2016-Apr-19 10:34N 01°14' E 103°53'9 8.6
2016-Apr-19 09:34N 01°17' E 103°45'0 0.1
2016-Apr-19 08:22N 01°17' E 103°45'0 0.0
2016-Apr-19 07:31N 01°17' E 103°45'0 0.0
2016-Apr-19 06:31N 01°17' E 103°45'0 0.0
2016-Apr-19 05:31N 01°17' E 103°45'0 0.0
2016-Apr-19 04:31N 01°17' E 103°45'0 0.0
2016-Apr-19 03:31N 01°17' E 103°45'0 0.0
2016-Apr-19 02:25N 01°17' E 103°45'0 0.0
2016-Apr-19 01:31N 01°17' E 103°45'0 0.0
2016-Apr-19 00:31N 01°17' E 103°45'0 0.0
2016-Apr-18 23:31N 01°17' E 103°45'1 1.2
2016-Apr-18 22:33N 01°16' E 103°45'9 9.5
2016-Apr-18 21:33N 01°13' E 103°37'9 9.1
2016-Apr-18 20:32N 01°10' E 103°28'  
Track history (hours):
 
Tides and Currents Weather Stations Pressure Air Temp Water Temp Dewpoint Dewpoint Depression Visibility Wind Speed Wind Dir Waves Ship Positions

Morning Lady

Last reported at 2016-Apr-27 07:33 UTC. Time now 2016-Apr-30 11:16 UTC.
Position N 31°19' E 121°45'.

Length 234 m; draft 9.5 m.

Type: Ship. MMSI: 356473000.

Date/timePositionNaut miles runAvg speedWind from/ knotsBaromVisibWave heightAir tempDewpointWater temp
2016-Apr-27 07:33N 31°19' E 121°45'3 0.1
2016-Apr-26 06:25N 31°19' E 121°41'4 4.2
2016-Apr-26 05:32N 31°19' E 121°45'5610.5
2016-Apr-26 00:11N 31°07' E 122°49'4215.2
2016-Apr-25 21:24N 30°35' E 123°22'70613.8
2016-Apr-23 18:20N 22°07' E 114°15'1310.1
2016-Apr-23 17:05N 22°16' E 114°06'4 7.8
2016-Apr-23 16:33N 22°20' E 114°07'0 0.0
2016-Apr-23 08:33N 22°20' E 114°07'17 8.6
2016-Apr-23 06:31N 22°07' E 114°20'  
2016-Apr-19 22:21N 01°15' E 104°00'6 5.8
2016-Apr-19 21:21N 01°16' E 103°55'0 0.0
2016-Apr-19 19:24N 01°16' E 103°55'0 0.1
2016-Apr-19 18:30N 01°16' E 103°55'0 0.1
2016-Apr-19 17:33N 01°16' E 103°55'0 0.1
2016-Apr-19 16:33N 01°16' E 103°55'0 0.0
2016-Apr-19 15:30N 01°16' E 103°55'0 0.0
2016-Apr-19 13:33N 01°16' E 103°55'0 0.0
2016-Apr-19 11:33N 01°16' E 103°55'2 2.1
2016-Apr-19 10:34N 01°14' E 103°53'9 8.6
2016-Apr-19 09:34N 01°17' E 103°45'0 0.1
2016-Apr-19 08:22N 01°17' E 103°45'0 0.0
2016-Apr-19 07:31N 01°17' E 103°45'0 0.0
2016-Apr-19 06:31N 01°17' E 103°45'0 0.0
2016-Apr-19 05:31N 01°17' E 103°45'0 0.0
2016-Apr-19 04:31N 01°17' E 103°45'0 0.0
2016-Apr-19 03:31N 01°17' E 103°45'0 0.0
2016-Apr-19 02:25N 01°17' E 103°45'0 0.0
2016-Apr-19 01:31N 01°17' E 103°45'0 0.0
2016-Apr-19 00:31N 01°17' E 103°45'0 0.0
2016-Apr-18 23:31N 01°17' E 103°45'1 1.2
2016-Apr-18 22:33N 01°16' E 103°45'9 9.5
2016-Apr-18 21:33N 01°13' E 103°37'9 9.1
2016-Apr-18 20:32N 01°10' E 103°28'  

Dump ship's entire track history